KLCG

Wayne Municipal / Stan Morris Field Airport

Wayne, Nebraska, USA
METAR KLCG 230835Z AUTO 00000KT 10SM CLR 18/18 A2996 RMK AO2 T01810175
Observed Flight Rules
May-23 @ 08:35 UTC (19 minutes ago) Visual Flight Rules
Visibility Clouds
10 miles
  • Clear skies
Temperatures Readings
Current 18°C / 64°F
Dewpoint 18°C / 64°F
Humidity 100%
Altimeter 29.96" Hg
Pressure 1015 hPa
Elevation 436
METAR KLCG 230835Z AUTO 00000KT 10SM CLR 18/18 A2996 RMK AO2 T01810175
Observed Flight Rules
May-23 @ 08:35 UTC
(19 minutes ago)
VFR
Clouds
  • Clear skies
Temperature Dewpoint
18°C / 64°F 18°C / 64°F
Humidity Altimeter Pressure
100% 29.96" Hg 1015 hPa